Time;durP1;ratioP1;P1;durP2;ratioP2;P2;SDS_P1;SDS_P2;PMS_P1;PMS_P2;Temp;Humidity;BMP_temperature;BMP_pressure;BME280_temperature;BME280_humidity;BME280_pressure;Samples;Min_cycle;Max_cycle;Signal;HPM_P1;HPM_P2
2022/05/16 00:01:56;;;;;;;;;3.25;3.25;;;;;21.83;56.85;100483.66;5093540;27;45491;-65
2022/05/16 00:04:23;;;;;;;;;4.25;4.25;;;;;21.90;56.84;100496.53;5094486;27;45558;-65
2022/05/16 00:06:48;;;;;;;;;3.25;3.25;;;;;21.86;57.07;100514.69;5094854;27;45589;-66
2022/05/16 00:09:14;;;;;;;;;3.50;3.50;;;;;21.89;56.99;100519.78;5094528;27;45489;-63
2022/05/16 00:11:40;;;;;;;;;5.00;3.50;;;;;21.91;57.24;100525.00;5094493;27;46096;-65
2022/05/16 00:14:05;;;;;;;;;4.25;4.25;;;;;21.92;56.94;100522.19;5094248;27;45470;-64
2022/05/16 00:16:32;;;;;;;;;5.00;3.00;;;;;21.96;57.01;100512.09;5094479;27;45787;-64
2022/05/16 00:18:58;;;;;;;;;3.00;3.00;;;;;21.96;56.43;100494.19;5094443;27;45484;-65
2022/05/16 00:21:23;;;;;;;;;5.00;5.00;;;;;22.00;56.29;100492.09;5092293;27;47231;-64
2022/05/16 00:23:49;;;;;;;;;2.25;2.25;;;;;22.01;56.33;100475.91;5094097;27;45371;-65
2022/05/16 00:26:14;;;;;;;;;3.00;3.00;;;;;22.03;56.13;100467.72;5094241;27;45542;-64
2022/05/16 00:28:39;;;;;;;;;3.00;3.00;;;;;22.03;56.26;100481.09;5094266;27;45527;-64
2022/05/16 00:31:05;;;;;;;;;4.25;4.25;;;;;22.03;56.08;100489.13;5094037;27;46047;-64
2022/05/16 00:33:32;;;;;;;;;4.00;4.00;;;;;22.02;56.23;100501.69;5094127;27;45482;-66
2022/05/16 00:35:57;;;;;;;;;5.00;5.00;;;;;22.00;56.88;100498.31;5094154;27;45555;-64
2022/05/16 00:38:22;;;;;;;;;4.00;4.00;;;;;21.97;56.64;100503.06;5093963;27;45436;-65
2022/05/16 00:40:48;;;;;;;;;4.00;4.00;;;;;21.96;57.37;100501.38;5093944;27;45549;-65
2022/05/16 00:43:21;;;;;;;;;3.75;3.00;;;;;21.97;57.07;100500.38;5093956;27;45480;-65
2022/05/16 00:45:47;;;;;;;;;2.75;2.75;;;;;21.98;56.74;100483.34;5093988;27;45546;-65
2022/05/16 00:48:12;;;;;;;;;4.00;4.00;;;;;21.96;57.47;100494.19;5093724;27;45663;-65
2022/05/16 00:50:40;;;;;;;;;4.00;4.00;;;;;21.91;57.38;100490.19;5093817;27;46326;-65
2022/05/16 00:53:09;;;;;;;;;4.00;4.00;;;;;21.84;58.01;100484.50;5093641;27;45390;-65
2022/05/16 00:55:37;;;;;;;;;6.00;5.00;;;;;21.83;57.48;100485.50;5093860;27;45535;-65
2022/05/16 00:58:12;;;;;;;;;4.00;3.25;;;;;21.80;57.57;100472.38;5093884;27;45544;-65
2022/05/16 01:00:40;;;;;;;;;5.75;4.00;;;;;21.82;57.17;100465.91;5093322;27;45504;-65
2022/05/16 01:05:57;;;;;;;;;4.25;4.25;;;;;21.79;57.48;100460.81;5093946;27;45413;-65
2022/05/16 01:08:25;;;;;;;;;6.00;6.00;;;;;21.77;57.66;100454.72;5093760;27;45731;-64
2022/05/16 01:10:52;;;;;;;;;4.25;4.25;;;;;21.72;57.68;100454.28;5093530;27;45518;-64
2022/05/16 01:13:18;;;;;;;;;6.25;5.50;;;;;21.64;57.58;100459.41;5092421;27;45475;-64
2022/05/16 01:15:48;;;;;;;;;5.75;4.75;;;;;21.58;57.82;100471.50;5093690;27;45475;-65
2022/05/16 01:18:22;;;;;;;;;4.50;4.50;;;;;21.54;57.92;100467.34;5093551;27;45503;-64
2022/05/16 01:21:13;;;;;;;;;3.50;3.50;;;;;21.54;57.87;100469.19;5093236;27;45975;-64
2022/05/16 01:23:47;;;;;;;;;6.00;6.00;;;;;21.54;57.89;100470.03;5093225;27;45565;-64
2022/05/16 01:26:19;;;;;;;;;7.00;5.00;;;;;21.54;58.29;100472.72;5093532;27;45521;-65
2022/05/16 01:28:45;;;;;;;;;5.50;4.25;;;;;21.49;58.29;100463.38;5091973;27;45527;-64
2022/05/16 01:31:10;;;;;;;;;3.25;3.25;;;;;21.54;58.33;100470.03;5092726;27;46443;-64
2022/05/16 01:33:36;;;;;;;;;5.33;5.33;;;;;21.51;58.04;100470.28;5093204;27;45547;-64
2022/05/16 01:36:01;;;;;;;;;3.33;3.33;;;;;21.48;58.51;100467.88;5093177;27;45413;-64
2022/05/16 01:38:28;;;;;;;;;4.00;4.00;;;;;21.45;58.53;100478.00;5093206;27;45591;-65
2022/05/16 01:41:01;;;;;;;;;5.00;5.00;;;;;21.36;58.78;100487.63;5093000;27;46050;-64
2022/05/16 01:43:34;;;;;;;;;3.75;3.75;;;;;21.14;59.70;100496.53;5093202;27;45470;-65
2022/05/16 01:45:59;;;;;;;;;5.00;5.00;;;;;21.11;59.57;100480.72;5093196;27;45484;-64
2022/05/16 01:48:29;;;;;;;;;5.25;5.25;;;;;21.03;60.42;100477.81;5093172;27;45651;-64
2022/05/16 01:50:58;;;;;;;;;5.00;5.00;;;;;20.89;60.77;100486.97;5093003;27;45509;-64
2022/05/16 01:53:24;;;;;;;;;7.00;7.00;;;;;20.81;60.51;100490.25;5091653;27;45548;-64
2022/05/16 01:55:49;;;;;;;;;5.67;5.67;;;;;20.74;60.82;100487.22;5093151;27;45468;-64
2022/05/16 01:58:14;;;;;;;;;5.33;4.67;;;;;20.87;60.38;100500.44;5092910;27;45620;-64
2022/05/16 02:00:40;;;;;;;;;7.00;5.00;;;;;20.89;60.77;100500.34;5091264;27;46186;-65
2022/05/16 02:03:05;;;;;;;;;5.67;5.67;;;;;20.79;61.08;100488.66;5092925;27;45490;-64
2022/05/16 02:05:31;;;;;;;;;4.67;4.67;;;;;20.72;61.04;100496.34;5092832;27;45548;-64
2022/05/16 02:07:57;;;;;;;;;5.67;5.33;;;;;20.78;60.71;100487.81;5092844;27;45523;-64
2022/05/16 02:10:25;;;;;;;;;8.00;7.00;;;;;20.74;60.99;100492.59;5092911;27;45956;-64
2022/05/16 02:12:51;;;;;;;;;9.00;9.00;;;;;20.71;61.32;100489.28;5092639;27;45791;-65
2022/05/16 02:15:20;;;;;;;;;6.00;6.00;;;;;20.76;61.03;100496.94;5091491;27;45585;-65
2022/05/16 02:17:46;;;;;;;;;6.67;6.67;;;;;20.79;61.22;100502.88;5091444;27;45410;-65
2022/05/16 02:20:12;;;;;;;;;6.33;5.33;;;;;20.80;60.76;100504.59;5092270;27;45474;-65
2022/05/16 02:25:21;;;;;;;;;7.67;6.67;;;;;20.89;60.84;100486.97;5095139;27;45493;-64
2022/05/16 02:27:51;;;;;;;;;6.00;6.00;;;;;20.86;60.84;100498.75;5096274;27;45458;-65
2022/05/16 02:30:20;;;;;;;;;7.00;6.33;;;;;20.84;61.48;100500.69;5095577;27;45536;-65
2022/05/16 02:32:45;;;;;;;;;8.00;6.67;;;;;20.77;61.42;100502.19;5095922;27;45492;-65
2022/05/16 02:35:11;;;;;;;;;8.00;8.00;;;;;20.65;61.53;100495.13;5096265;27;45636;-65
2022/05/16 02:37:36;;;;;;;;;6.33;6.33;;;;;20.68;61.77;100508.22;5095940;27;45594;-64
2022/05/16 02:40:02;;;;;;;;;3.00;3.00;;;;;20.68;61.03;100498.38;5095655;27;48952;-64
2022/05/16 02:42:28;;;;;;;;;7.33;7.33;;;;;20.69;61.20;100497.44;5095657;27;45469;-66
2022/05/16 02:44:53;;;;;;;;;8.67;7.67;;;;;20.70;60.77;100495.59;5095857;27;45884;-64
2022/05/16 02:47:21;;;;;;;;;7.00;7.00;;;;;20.74;61.33;100507.78;5095664;27;45532;-64
2022/05/16 02:49:47;;;;;;;;;9.00;8.00;;;;;20.74;61.39;100515.78;5095633;27;45500;-64
2022/05/16 02:52:12;;;;;;;;;10.00;9.33;;;;;20.70;61.35;100512.50;5095996;27;45425;-64
2022/05/16 02:54:38;;;;;;;;;9.00;9.00;;;;;20.71;61.61;100508.00;5095734;27;45632;-65
2022/05/16 02:57:04;;;;;;;;;8.67;8.00;;;;;20.69;61.55;100505.44;5095862;27;45433;-65
2022/05/16 02:59:33;;;;;;;;;8.67;8.67;;;;;20.72;61.71;100496.34;5093918;27;47832;-65
2022/05/16 03:02:04;;;;;;;;;8.00;8.00;;;;;20.79;60.74;100497.53;5095408;27;45561;-64
2022/05/16 03:04:30;;;;;;;;;10.00;9.00;;;;;20.87;61.07;100500.44;5095516;27;45473;-65
2022/05/16 03:06:56;;;;;;;;;8.67;8.67;;;;;20.91;60.87;100498.41;5094153;27;45544;-64
2022/05/16 03:09:23;;;;;;;;;7.33;7.33;;;;;20.93;60.61;100499.97;5095229;27;45452;-65
2022/05/16 03:11:49;;;;;;;;;12.00;12.00;;;;;20.88;60.78;100501.31;5095245;27;45574;-65
2022/05/16 03:14:14;;;;;;;;;10.00;9.33;;;;;20.91;60.68;100501.06;5095607;27;45504;-65
2022/05/16 03:16:40;;;;;;;;;11.33;10.00;;;;;20.98;60.28;100512.94;5095466;27;45601;-64
2022/05/16 03:19:06;;;;;;;;;9.67;9.00;;;;;20.96;60.49;100521.13;5095208;27;46185;-64
2022/05/16 03:21:32;;;;;;;;;11.00;11.00;;;;;20.99;60.61;100525.38;5095250;27;45505;-65
2022/05/16 03:23:58;;;;;;;;;11.00;11.00;;;;;21.04;60.46;100523.19;5095391;27;45456;-65
2022/05/16 03:26:24;;;;;;;;;10.00;10.00;;;;;21.05;60.39;100524.03;5095263;27;45651;-67
2022/05/16 03:28:50;;;;;;;;;12.33;11.67;;;;;21.09;60.12;100522.78;5093314;27;45642;-64
2022/05/16 03:31:16;;;;;;;;;13.67;12.67;;;;;21.13;60.62;100519.75;5095028;27;45386;-64
2022/05/16 03:33:41;;;;;;;;;13.00;13.00;;;;;21.08;60.66;100527.28;5095070;27;45463;-64
2022/05/16 03:36:07;;;;;;;;;11.33;11.33;;;;;21.10;60.33;100532.53;5094221;27;45582;-65
2022/05/16 03:41:16;;;;;;;;;13.67;13.33;;;;;21.18;60.14;100546.13;5094990;27;45429;-64
2022/05/16 03:43:42;;;;;;;;;11.67;11.67;;;;;21.20;60.39;100549.53;5095027;27;45980;-64
2022/05/16 03:46:09;;;;;;;;;14.33;12.33;;;;;21.13;60.43;100559.88;5094773;27;45440;-64
2022/05/16 03:48:35;;;;;;;;;14.67;13.67;;;;;21.10;60.39;100562.78;5094535;27;46281;-66
2022/05/16 03:51:02;;;;;;;;;11.33;11.33;;;;;21.04;60.52;100573.13;5094426;27;45544;-64
2022/05/16 03:53:28;;;;;;;;;13.67;13.67;;;;;21.04;60.68;100575.81;5094670;27;45545;-66
2022/05/16 03:55:54;;;;;;;;;15.33;14.33;;;;;21.00;60.95;100575.19;5094641;27;45424;-64
2022/05/16 03:58:19;;;;;;;;;12.00;12.00;;;;;20.98;61.05;100576.28;5094430;27;46331;-65
2022/05/16 04:00:45;;;;;;;;;13.67;13.67;;;;;20.98;61.15;100577.13;5092566;27;45498;-64
2022/05/16 04:03:10;;;;;;;;;11.33;10.00;;;;;20.98;60.77;100576.28;5094839;27;45591;-64
2022/05/16 04:05:37;;;;;;;;;14.67;13.33;;;;;21.03;60.84;100579.44;5094534;27;45477;-64
2022/05/16 04:08:03;;;;;;;;;13.00;10.00;;;;;20.98;61.17;100577.13;5094484;27;45484;-64
2022/05/16 04:10:28;;;;;;;;;14.33;13.33;;;;;20.97;61.45;100583.47;5094307;27;45511;-64
2022/05/16 04:12:54;;;;;;;;;11.33;10.00;;;;;20.91;61.17;100586.63;5094260;27;45541;-64
2022/05/16 04:15:21;;;;;;;;;16.00;15.00;;;;;20.91;61.41;100586.63;5094514;27;45505;-65
2022/05/16 04:17:47;;;;;;;;;11.67;10.67;;;;;20.90;61.21;100598.28;5094281;27;46335;-64
2022/05/16 04:20:13;;;;;;;;;13.00;13.00;;;;;20.87;61.36;100602.03;5094175;27;45554;-65
2022/05/16 04:22:39;;;;;;;;;14.00;12.33;;;;;20.89;60.90;100605.44;5094510;27;45535;-64
2022/05/16 04:25:06;;;;;;;;;14.00;13.00;;;;;20.92;61.33;100613.22;5094310;27;45523;-64
2022/05/16 04:27:31;;;;;;;;;17.67;14.33;;;;;20.91;61.09;100613.34;5094175;27;46268;-64
2022/05/16 04:29:57;;;;;;;;;14.33;12.67;;;;;20.92;61.26;100623.06;5094017;27;45484;-65
2022/05/16 04:32:22;;;;;;;;;15.00;13.67;;;;;20.90;61.41;100623.22;5094158;27;45984;-65
2022/05/16 04:34:47;;;;;;;;;12.00;11.67;;;;;20.86;61.29;100632.41;5094022;27;45583;-65
2022/05/16 04:37:13;;;;;;;;;16.00;16.00;;;;;20.88;61.42;100633.16;5094045;27;46100;-64
2022/05/16 04:39:38;;;;;;;;;14.33;12.00;;;;;20.87;61.80;100643.97;5094006;27;45513;-64
2022/05/16 04:44:48;;;;;;;;;14.33;13.33;;;;;20.84;61.69;100641.53;5094260;27;45498;-65
2022/05/16 04:47:13;;;;;;;;;14.67;13.00;;;;;20.86;61.63;100648.47;5093621;27;45989;-65
2022/05/16 04:49:39;;;;;;;;;16.00;16.00;;;;;20.88;61.67;100670.59;5093846;27;45494;-64
2022/05/16 04:52:05;;;;;;;;;16.33;15.67;;;;;20.89;61.49;100677.63;5093914;27;46175;-64
2022/05/16 04:54:30;;;;;;;;;16.67;16.67;;;;;20.87;61.59;100676.03;5093680;27;45476;-64
2022/05/16 04:56:56;;;;;;;;;15.00;15.00;;;;;20.91;61.40;100705.09;5092240;27;45447;-65
2022/05/16 04:59:21;;;;;;;;;15.00;15.00;;;;;20.90;61.60;100706.09;5093530;27;45491;-65
2022/05/16 05:01:48;;;;;;;;;16.00;15.33;;;;;20.89;61.61;100711.53;5093355;27;45510;-65
2022/05/16 05:04:13;;;;;;;;;17.00;15.67;;;;;20.82;61.89;100711.19;5093922;27;45470;-67
2022/05/16 05:06:39;;;;;;;;;16.00;16.00;;;;;20.81;61.58;100716.63;5093298;27;46077;-65
2022/05/16 05:09:05;;;;;;;;;20.67;18.33;;;;;20.76;61.97;100719.63;5093514;27;45520;-64
2022/05/16 05:14:32;;;;;;;;;17.33;17.00;;;;;20.80;61.50;100701.56;5093542;27;45481;-65
2022/05/16 05:17:01;;;;;;;;;19.00;18.00;;;;;20.89;60.57;100707.03;5093432;27;46033;-65
2022/05/16 05:19:27;;;;;;;;;20.67;17.00;;;;;20.92;61.26;100714.81;5093455;27;45416;-64
2022/05/16 05:21:52;;;;;;;;;21.67;18.67;;;;;20.96;60.98;100708.28;5093510;27;45539;-64
2022/05/16 05:24:18;;;;;;;;;16.33;16.33;;;;;20.94;61.24;100712.88;5093574;27;45539;-65
2022/05/16 05:26:43;;;;;;;;;17.33;15.33;;;;;20.96;60.94;100724.31;5093522;27;45415;-66
2022/05/16 05:29:10;;;;;;;;;19.00;17.67;;;;;20.92;60.93;100724.66;5093120;27;45413;-66
2022/05/16 05:31:37;;;;;;;;;20.67;20.67;;;;;20.88;61.15;100737.44;5091886;27;45488;-65
2022/05/16 05:34:03;;;;;;;;;17.33;17.00;;;;;20.84;60.96;100738.63;5092929;27;45429;-65
2022/05/16 05:36:29;;;;;;;;;23.00;20.00;;;;;20.85;60.80;100744.84;5091569;27;45563;-65
2022/05/16 05:38:54;;;;;;;;;21.00;16.67;;;;;20.82;60.82;100751.28;5092745;27;45566;-66
2022/05/16 05:41:21;;;;;;;;;24.33;22.00;;;;;20.88;61.32;100753.47;5093213;27;45433;-65
2022/05/16 05:43:47;;;;;;;;;19.33;19.33;;;;;20.90;60.55;100762.22;5093154;27;45675;-66
2022/05/16 05:46:13;;;;;;;;;20.33;20.33;;;;;20.92;60.72;100772.78;5093007;27;45491;-64
2022/05/16 05:48:38;;;;;;;;;17.00;17.00;;;;;20.98;60.56;100787.50;5093064;27;45512;-64
2022/05/16 05:51:04;;;;;;;;;19.67;19.67;;;;;20.96;60.18;100771.59;5092978;27;45510;-64
2022/05/16 05:53:30;;;;;;;;;20.67;19.67;;;;;20.94;60.70;100784.22;5093065;27;45547;-65
2022/05/16 05:55:55;;;;;;;;;19.00;19.00;;;;;20.93;60.20;100794.09;5092733;27;45583;-64
2022/05/16 05:58:21;;;;;;;;;17.67;17.67;;;;;20.96;59.81;100795.66;5093102;27;45687;-65
2022/05/16 06:00:47;;;;;;;;;19.33;16.67;;;;;20.90;60.23;100796.13;5095851;27;45511;-65
2022/05/16 06:03:13;;;;;;;;;18.67;18.33;;;;;20.93;60.34;100806.59;5095286;27;45742;-65
2022/05/16 06:05:39;;;;;;;;;22.00;18.00;;;;;20.83;60.99;100808.25;5096362;27;45405;-65
2022/05/16 06:08:04;;;;;;;;;18.33;18.33;;;;;20.87;60.77;100802.53;5096324;27;45483;-64
2022/05/16 06:10:30;;;;;;;;;19.33;19.00;;;;;20.86;60.53;100808.88;5096728;27;45539;-64
2022/05/16 06:12:55;;;;;;;;;22.50;22.00;;;;;20.81;60.82;100820.88;5096371;27;45486;-65
2022/05/16 06:15:22;;;;;;;;;19.67;19.67;;;;;20.79;60.45;100812.13;5094711;27;46021;-64
2022/05/16 06:17:47;;;;;;;;;19.33;19.33;;;;;20.84;60.34;100826.00;5096270;27;45523;-65
2022/05/16 06:20:15;;;;;;;;;22.67;18.67;;;;;20.85;60.63;100817.88;5095958;27;45498;-65
2022/05/16 06:22:40;;;;;;;;;19.00;18.00;;;;;20.87;60.22;100834.63;5096302;27;45512;-65
2022/05/16 06:25:33;;;;;;;;;22.33;19.33;;;;;20.83;59.99;100833.16;5095851;27;46294;-65
2022/05/16 06:28:05;;;;;;;;;18.67;16.33;;;;;20.90;60.03;100836.22;5094438;27;45585;-65
2022/05/16 06:30:32;;;;;;;;;19.67;19.67;;;;;20.92;59.80;100837.81;5096145;27;45447;-64
2022/05/16 06:32:58;;;;;;;;;19.00;18.00;;;;;20.94;59.67;100843.06;5096014;27;45484;-65
2022/05/16 06:35:24;;;;;;;;;18.33;18.33;;;;;21.04;59.78;100849.44;5094188;27;46348;-65
2022/05/16 06:37:50;;;;;;;;;16.00;16.00;;;;;21.06;59.61;100846.63;5095955;27;45437;-65
2022/05/16 06:40:17;;;;;;;;;19.67;18.00;;;;;21.05;59.23;100850.28;5094435;27;45502;-65
2022/05/16 06:42:43;;;;;;;;;17.67;17.33;;;;;21.01;59.06;100860.34;5094397;27;45576;-65
2022/05/16 06:45:10;;;;;;;;;16.33;16.33;;;;;21.01;59.24;100856.81;5095793;27;45508;-65
2022/05/16 06:47:35;;;;;;;;;18.33;18.00;;;;;21.00;58.90;100868.47;5095711;27;45499;-65
2022/05/16 06:50:00;;;;;;;;;19.33;15.67;;;;;20.98;58.69;100875.75;5095698;27;45632;-65
2022/05/16 06:52:26;;;;;;;;;15.67;15.67;;;;;20.93;59.03;100876.13;5094087;27;45627;-65
2022/05/16 06:54:51;;;;;;;;;14.67;14.67;;;;;20.85;58.86;100884.72;5095199;27;45905;-65
2022/05/16 06:57:18;;;;;;;;;18.67;17.33;;;;;20.93;58.63;100892.16;5095578;27;45469;-66
2022/05/16 06:59:43;;;;;;;;;17.67;16.67;;;;;20.96;58.42;100891.94;5095437;27;45578;-65
2022/05/16 07:02:09;;;;;;;;;21.33;18.00;;;;;21.00;58.27;100908.59;5095208;27;45605;-65
2022/05/16 07:04:37;;;;;;;;;17.67;17.33;;;;;20.99;57.96;100913.09;5095355;27;46100;-67
2022/05/16 07:07:04;;;;;;;;;20.67;20.00;;;;;21.00;57.84;100921.97;5095366;27;45534;-66
2022/05/16 07:09:30;;;;;;;;;15.00;15.00;;;;;20.96;58.13;100916.84;5095385;27;45472;-65
2022/05/16 07:11:55;;;;;;;;;21.00;18.33;;;;;20.96;57.86;100916.84;5094212;27;45372;-65
2022/05/16 07:14:21;;;;;;;;;19.67;19.67;;;;;20.98;57.85;100921.22;5094745;27;45483;-65
2022/05/16 07:16:46;;;;;;;;;19.33;18.33;;;;;21.04;57.66;100926.13;5095264;27;45529;-65
2022/05/16 07:19:12;;;;;;;;;11.33;11.33;;;;;21.09;57.55;100932.84;5095104;27;45441;-65
2022/05/16 07:21:38;;;;;;;;;14.33;14.33;;;;;21.12;57.28;100932.63;5095211;27;45716;-64
2022/05/16 07:24:04;;;;;;;;;15.33;14.33;;;;;21.11;57.22;100930.03;5094910;27;45583;-64
2022/05/16 07:29:17;;;;;;;;;16.00;14.00;;;;;21.14;56.65;100941.38;5084553;27;45601;-64
2022/05/16 07:31:43;;;;;;;;;14.67;13.67;;;;;21.18;56.68;100947.34;5095153;27;45647;-64
2022/05/16 07:34:08;;;;;;;;;14.33;14.33;;;;;21.21;55.96;100949.78;5094725;27;55538;-65
2022/05/16 07:36:33;;;;;;;;;15.33;15.00;;;;;21.22;56.21;100947.97;5094662;27;46649;-63
2022/05/16 07:38:58;;;;;;;;;14.00;13.00;;;;;21.23;55.85;100957.72;5094917;27;45562;-64
2022/05/16 07:41:24;;;;;;;;;13.33;13.33;;;;;21.18;55.70;100948.19;5093749;27;46096;-65
2022/05/16 07:43:49;;;;;;;;;14.00;13.67;;;;;21.26;55.53;100957.47;5094690;27;45908;-65
2022/05/16 07:46:14;;;;;;;;;13.00;13.00;;;;;21.28;55.78;100956.41;5094578;27;45496;-65
2022/05/16 07:48:40;;;;;;;;;14.33;14.33;;;;;21.25;55.72;100953.97;5093083;27;45621;-65
2022/05/16 07:51:06;;;;;;;;;18.67;16.00;;;;;21.27;55.85;100961.84;5094617;27;45500;-65
2022/05/16 07:53:31;;;;;;;;;16.33;16.33;;;;;21.33;55.93;100961.38;5094519;27;45503;-65
2022/05/16 07:55:57;;;;;;;;;13.67;12.67;;;;;21.33;55.82;100970.28;5094640;27;45560;-65
2022/05/16 07:58:25;;;;;;;;;15.67;14.67;;;;;21.36;55.53;100977.25;5094891;27;45534;-65
2022/05/16 08:00:50;;;;;;;;;13.33;13.33;;;;;21.39;54.83;100974.38;5092707;27;45598;-65
2022/05/16 08:03:19;;;;;;;;;13.67;11.33;;;;;21.36;54.83;100980.75;5094100;27;45547;-65
2022/05/16 08:05:45;;;;;;;;;13.67;12.00;;;;;21.33;54.79;100978.31;5094290;27;45490;-65
2022/05/16 08:11:00;;;;;;;;;13.67;13.33;;;;;21.35;54.90;100975.50;5094467;27;45500;-64
2022/05/16 08:13:26;;;;;;;;;12.67;11.67;;;;;21.46;54.71;100985.44;5093723;27;45479;-64
2022/05/16 08:15:52;;;;;;;;;14.33;13.33;;;;;21.49;54.30;100980.72;5094142;27;45380;-64
2022/05/16 08:18:17;;;;;;;;;18.00;14.67;;;;;21.48;53.84;100976.34;5094284;27;45584;-63
2022/05/16 08:20:46;;;;;;;;;12.67;12.67;;;;;21.55;53.59;100976.75;5094101;27;45537;-64
2022/05/16 08:23:14;;;;;;;;;12.00;10.67;;;;;21.61;53.65;100986.97;5093368;27;45469;-65
2022/05/16 08:25:40;;;;;;;;;11.00;10.67;;;;;21.64;53.32;100985.91;5092286;27;45520;-65
2022/05/16 08:28:09;;;;;;;;;9.00;9.00;;;;;21.67;53.39;100977.63;5093130;27;46066;-65
2022/05/16 08:30:35;;;;;;;;;9.00;9.00;;;;;21.67;52.89;100988.34;5092808;27;45474;-65
2022/05/16 08:33:01;;;;;;;;;11.00;10.00;;;;;21.68;52.90;101000.72;5093963;27;46027;-65
2022/05/16 08:35:28;;;;;;;;;8.67;8.00;;;;;21.61;52.69;100998.53;5093815;27;45507;-65
2022/05/16 08:40:59;;;;;;;;;6.75;6.75;;;;;21.56;51.67;101006.06;5094069;27;45531;-65
2022/05/16 08:43:50;;;;;;;;;7.50;6.50;;;;;21.57;51.94;101012.25;5093650;27;46462;-67
2022/05/16 08:46:37;;;;;;;;;6.33;6.33;;;;;21.59;51.62;101013.00;5093647;27;45511;-63
2022/05/16 08:49:14;;;;;;;;;11.67;8.00;;;;;21.61;51.95;101009.25;5093485;27;45505;-64
2022/05/16 08:51:41;;;;;;;;;12.00;9.33;;;;;21.67;51.48;101015.09;5093712;27;45520;-64
2022/05/16 08:54:34;;;;;;;;;11.67;11.00;;;;;21.64;52.09;101018.00;5093418;27;45669;-64
2022/05/16 08:57:03;;;;;;;;;6.67;6.67;;;;;21.63;51.03;101017.16;5093729;27;45527;-66
2022/05/16 08:59:34;;;;;;;;;8.00;7.67;;;;;21.61;51.77;101021.78;5093846;27;45547;-64
2022/05/16 09:02:21;;;;;;;;;8.00;8.00;;;;;21.58;52.32;101019.34;5093492;27;46278;-64
2022/05/16 09:05:02;;;;;;;;;9.00;9.00;;;;;21.52;53.11;101022.44;5093378;27;46317;-65
2022/05/16 09:07:40;;;;;;;;;10.00;8.33;;;;;21.51;53.89;101018.91;5093304;27;45500;-65
2022/05/16 09:10:17;;;;;;;;;14.00;13.00;;;;;21.45;54.38;101032.78;5093633;27;45508;-65
2022/05/16 09:13:06;;;;;;;;;10.00;10.00;;;;;21.49;54.02;101038.75;5093493;27;45496;-65
2022/05/16 09:15:41;;;;;;;;;9.67;9.67;;;;;21.57;54.56;101041.69;5092922;27;45593;-65
2022/05/16 09:18:24;;;;;;;;;10.00;8.33;;;;;21.58;54.52;101041.59;5093176;27;45448;-65
2022/05/16 09:20:49;;;;;;;;;12.00;11.33;;;;;21.57;55.02;101052.41;5093157;27;45426;-65
2022/05/16 09:23:27;;;;;;;;;11.67;11.67;;;;;21.48;55.18;101053.94;5093209;27;45788;-65
2022/05/16 09:26:01;;;;;;;;;17.00;15.00;;;;;21.48;55.24;101055.78;5092774;27;46051;-65
2022/05/16 09:28:35;;;;;;;;;12.00;11.33;;;;;21.50;55.17;101052.03;5092642;27;45493;-65
2022/05/16 09:31:21;;;;;;;;;9.33;9.33;;;;;21.51;54.67;101058.22;5093034;27;45585;-65
2022/05/16 09:33:50;;;;;;;;;10.67;10.67;;;;;21.51;55.28;101055.53;5092116;27;45379;-65
2022/05/16 09:36:21;;;;;;;;;11.67;11.67;;;;;21.53;55.64;101058.97;5092752;27;46098;-65
2022/05/16 09:38:47;;;;;;;;;10.00;9.33;;;;;21.46;55.02;101069.25;5093142;27;45500;-65
2022/05/16 09:41:37;;;;;;;;;13.33;11.33;;;;;21.47;55.20;101062.94;5093136;27;45452;-65
2022/05/16 09:44:08;;;;;;;;;10.00;10.00;;;;;21.50;55.04;101069.91;5092927;27;45460;-65
2022/05/16 09:46:40;;;;;;;;;11.33;11.33;;;;;21.45;55.03;101072.06;5091289;27;46521;-65
2022/05/16 09:49:27;;;;;;;;;14.67;13.33;;;;;21.49;54.59;101073.53;5092687;27;45481;-65
2022/05/16 09:51:59;;;;;;;;;11.67;10.67;;;;;21.46;54.31;101088.00;5092754;27;45483;-65
2022/05/16 09:54:31;;;;;;;;;9.33;9.33;;;;;21.50;54.34;101077.94;5092703;27;45532;-65
2022/05/16 09:57:12;;;;;;;;;10.00;10.00;;;;;21.44;54.18;101081.03;5092462;27;45583;-65
2022/05/16 09:59:44;;;;;;;;;9.00;8.00;;;;;21.45;54.20;101080.94;5092663;27;45469;-65
2022/05/16 10:02:15;;;;;;;;;10.00;9.00;;;;;21.49;53.54;101079.72;5092527;27;45472;-65
2022/05/16 10:04:43;;;;;;;;;14.33;13.00;;;;;21.50;53.32;101089.50;5092784;27;45488;-65
2022/05/16 10:07:10;;;;;;;;;13.67;11.00;;;;;21.43;53.81;101084.69;5092478;27;45465;-65
2022/05/16 10:09:46;;;;;;;;;11.67;9.00;;;;;21.34;53.80;101087.03;5092208;27;45563;-65
2022/05/16 10:12:16;;;;;;;;;13.00;12.00;;;;;21.31;54.15;101089.09;5092627;27;45484;-65
2022/05/16 10:14:42;;;;;;;;;11.67;9.67;;;;;21.33;54.27;101089.81;5092567;27;45499;-65
2022/05/16 10:17:10;;;;;;;;;9.67;9.67;;;;;21.34;54.13;101091.53;5092229;27;46192;-65
2022/05/16 10:19:39;;;;;;;;;9.33;9.33;;;;;21.39;54.60;101097.44;5092494;27;45418;-64
2022/05/16 10:22:14;;;;;;;;;13.67;12.33;;;;;21.46;53.90;101104.03;5092245;27;45489;-64
2022/05/16 10:24:49;;;;;;;;;13.00;13.00;;;;;21.48;53.97;101096.75;5092547;27;45468;-64
2022/05/16 10:27:19;;;;;;;;;12.00;10.00;;;;;21.48;54.14;101093.25;5091989;27;45564;-64
2022/05/16 10:29:51;;;;;;;;;15.00;10.33;;;;;21.56;53.85;101096.22;5092107;27;45565;-64
2022/05/16 10:35:34;;;;;;;;;12.67;10.00;;;;;21.70;53.51;101098.72;5091095;27;45530;-64
2022/05/16 10:38:11;;;;;;;;;12.00;12.00;;;;;21.73;53.19;101087.78;5091441;27;45496;-65
2022/05/16 10:40:47;;;;;;;;;12.00;12.00;;;;;21.74;53.30;101092.19;5091416;27;45509;-65
2022/05/16 10:43:26;;;;;;;;;11.67;11.67;;;;;21.81;52.95;101100.59;5091402;27;45516;-64
2022/05/16 10:46:01;;;;;;;;;12.00;10.33;;;;;21.86;53.02;101092.22;5093131;27;45545;-65
2022/05/16 10:48:41;;;;;;;;;11.67;11.67;;;;;21.94;53.11;101093.34;5094661;27;45646;-65
2022/05/16 10:51:38;;;;;;;;;11.33;10.00;;;;;22.03;52.65;101094.47;5095020;27;45533;-65
2022/05/16 10:54:11;;;;;;;;;12.33;9.00;;;;;22.13;52.08;101095.47;5072242;27;45685;-65
2022/05/16 10:56:39;;;;;;;;;12.67;12.67;;;;;22.23;52.31;101099.22;5094790;27;45469;-65
2022/05/16 10:59:20;;;;;;;;;12.33;10.00;;;;;22.34;52.01;101094.84;5093630;27;46205;-65
2022/05/16 11:02:36;;;;;;;;;12.67;12.67;;;;;22.43;51.97;101097.69;5094712;27;45428;-65
2022/05/16 11:05:10;;;;;;;;;12.33;11.67;;;;;22.52;52.14;101097.94;5085486;27;45503;-66
2022/05/16 11:07:42;;;;;;;;;14.00;12.33;;;;;22.60;51.98;101092.84;5094807;27;45530;-65
2022/05/16 11:10:29;;;;;;;;;12.67;10.33;;;;;22.68;51.62;101085.91;5094585;27;45576;-66
2022/05/16 11:13:35;;;;;;;;;15.67;15.67;;;;;22.76;51.53;101082.63;5094576;27;45551;-65
2022/05/16 11:16:29;;;;;;;;;13.33;13.33;;;;;22.84;51.29;101084.69;5078331;27;45737;-65
2022/05/16 11:19:20;;;;;;;;;19.00;16.00;;;;;22.81;51.26;101066.13;5093145;27;45786;-65
2022/05/16 11:21:53;;;;;;;;;13.00;10.00;;;;;22.99;51.03;101090.69;5094308;27;46362;-64
2022/05/16 11:24:34;;;;;;;;;9.00;9.00;;;;;23.07;50.43;101096.28;5094283;27;45531;-63
2022/05/16 11:27:13;;;;;;;;;12.00;11.00;;;;;23.11;49.86;101095.94;5094479;27;45534;-65
2022/05/16 11:29:50;;;;;;;;;9.00;9.00;;;;;23.17;49.45;101086.53;5094392;27;45540;-65
2022/05/16 11:32:22;;;;;;;;;8.75;8.75;;;;;23.22;49.40;101089.69;5092653;27;47789;-65
2022/05/16 11:35:07;;;;;;;;;12.25;10.75;;;;;23.18;49.35;101077.50;5094264;27;45472;-66
2022/05/16 11:37:44;;;;;;;;;10.25;9.25;;;;;23.17;49.24;101091.91;5094588;27;45402;-65
2022/05/16 11:40:31;;;;;;;;;9.25;8.75;;;;;23.14;49.31;101086.78;5094247;27;45606;-65
2022/05/16 11:43:15;;;;;;;;;8.25;8.25;;;;;23.14;49.31;101094.84;5094073;27;46117;-65
2022/05/16 11:46:18;;;;;;;;;9.00;9.00;;;;;23.06;48.50;101083.88;5092965;27;46372;-65
2022/05/16 11:48:58;;;;;;;;;7.00;6.00;;;;;23.01;47.75;101081.53;5094700;27;45520;-65
2022/05/16 11:51:48;;;;;;;;;9.25;7.00;;;;;23.06;48.54;101073.97;5094364;27;45479;-65